Burhaniye, Turkey
Current Conditions -  °F | °C
As of 10:50 PM on Thursday 29 Jan 2015 (Local Time) from LTFD Reporting Station
Broken Clouds Broken Clouds  
Wind Chill: 44°   Ceiling: 10000
Heat Index: 46°   Visibility: 4mi
Dew Point: 43°   Wind: 6mph
Humidity: 87%   Direction: 100°E
Pressure: 29.74"   Gusts: NA
Location:  39.51°N, 26.98°E
Report Text: LTFD 291950Z 10005KT 7000 SCT030 BKN100 08/06 Q1007 RESHRA R23290192
Loading
Personal Weather Stations






























Interactive Weather Map New forecast layout! Learn more

10-Day Weather Forecast

Advertisements
Track Severe Weather on mobile